sensor_id;sensor_type;location;lat;lon;timestamp;P1;durP1;ratioP1;P2;durP2;ratioP2
36359;SDS011;22388;52.432;20.662;2023-04-08T00:02:21;15.43;;;10.90;;
36359;SDS011;22388;52.432;20.662;2023-04-08T00:04:46;15.93;;;10.77;;
36359;SDS011;22388;52.432;20.662;2023-04-08T00:07:12;15.40;;;10.77;;
36359;SDS011;22388;52.432;20.662;2023-04-08T00:09:38;16.92;;;12.60;;
36359;SDS011;22388;52.432;20.662;2023-04-08T00:12:03;18.25;;;13.15;;
36359;SDS011;22388;52.432;20.662;2023-04-08T00:14:29;17.25;;;12.88;;
36359;SDS011;22388;52.432;20.662;2023-04-08T00:16:55;21.10;;;14.50;;
36359;SDS011;22388;52.432;20.662;2023-04-08T00:19:20;21.02;;;14.20;;
36359;SDS011;22388;52.432;20.662;2023-04-08T00:21:46;20.98;;;15.40;;
36359;SDS011;22388;52.432;20.662;2023-04-08T00:24:12;23.40;;;15.13;;
36359;SDS011;22388;52.432;20.662;2023-04-08T00:26:37;21.55;;;14.88;;
36359;SDS011;22388;52.432;20.662;2023-04-08T00:29:03;20.15;;;15.40;;
36359;SDS011;22388;52.432;20.662;2023-04-08T00:31:29;20.50;;;15.65;;
36359;SDS011;22388;52.432;20.662;2023-04-08T00:33:55;19.88;;;14.88;;
36359;SDS011;22388;52.432;20.662;2023-04-08T00:36:20;16.90;;;12.77;;
36359;SDS011;22388;52.432;20.662;2023-04-08T00:38:46;19.80;;;13.90;;
36359;SDS011;22388;52.432;20.662;2023-04-08T00:41:12;17.00;;;12.43;;
36359;SDS011;22388;52.432;20.662;2023-04-08T00:43:38;18.92;;;12.95;;
36359;SDS011;22388;52.432;20.662;2023-04-08T00:46:03;15.45;;;12.13;;
36359;SDS011;22388;52.432;20.662;2023-04-08T00:48:30;18.52;;;13.10;;
36359;SDS011;22388;52.432;20.662;2023-04-08T00:50:56;19.13;;;12.77;;
36359;SDS011;22388;52.432;20.662;2023-04-08T00:53:22;19.45;;;13.38;;
36359;SDS011;22388;52.432;20.662;2023-04-08T00:55:48;19.05;;;13.48;;
36359;SDS011;22388;52.432;20.662;2023-04-08T00:58:13;18.95;;;13.35;;
36359;SDS011;22388;52.432;20.662;2023-04-08T01:00:41;18.23;;;13.25;;
36359;SDS011;22388;52.432;20.662;2023-04-08T01:03:23;18.10;;;12.60;;
36359;SDS011;22388;52.432;20.662;2023-04-08T01:08:55;21.23;;;14.80;;
36359;SDS011;22388;52.432;20.662;2023-04-08T01:11:24;21.10;;;15.32;;
36359;SDS011;22388;52.432;20.662;2023-04-08T01:13:52;20.67;;;14.27;;
36359;SDS011;22388;52.432;20.662;2023-04-08T01:16:19;21.45;;;14.68;;
36359;SDS011;22388;52.432;20.662;2023-04-08T01:18:46;22.75;;;15.30;;
36359;SDS011;22388;52.432;20.662;2023-04-08T01:21:12;21.70;;;15.50;;
36359;SDS011;22388;52.432;20.662;2023-04-08T01:26:26;22.85;;;15.45;;
36359;SDS011;22388;52.432;20.662;2023-04-08T01:28:55;23.63;;;16.05;;
36359;SDS011;22388;52.432;20.662;2023-04-08T01:31:23;23.88;;;16.92;;
36359;SDS011;22388;52.432;20.662;2023-04-08T01:33:50;23.90;;;16.70;;
36359;SDS011;22388;52.432;20.662;2023-04-08T01:36:16;22.15;;;16.27;;
36359;SDS011;22388;52.432;20.662;2023-04-08T01:38:45;23.13;;;16.95;;
36359;SDS011;22388;52.432;20.662;2023-04-08T01:41:12;22.95;;;15.80;;
36359;SDS011;22388;52.432;20.662;2023-04-08T01:43:40;23.63;;;16.60;;
36359;SDS011;22388;52.432;20.662;2023-04-08T01:46:07;23.63;;;16.05;;
36359;SDS011;22388;52.432;20.662;2023-04-08T01:48:34;22.90;;;15.45;;
36359;SDS011;22388;52.432;20.662;2023-04-08T01:51:00;21.80;;;15.30;;
36359;SDS011;22388;52.432;20.662;2023-04-08T01:53:26;22.20;;;14.52;;
36359;SDS011;22388;52.432;20.662;2023-04-08T01:55:54;20.15;;;14.15;;
36359;SDS011;22388;52.432;20.662;2023-04-08T01:58:22;20.33;;;13.50;;
36359;SDS011;22388;52.432;20.662;2023-04-08T02:00:49;18.10;;;13.18;;
36359;SDS011;22388;52.432;20.662;2023-04-08T02:03:16;18.90;;;13.05;;
36359;SDS011;22388;52.432;20.662;2023-04-08T02:05:43;18.75;;;13.77;;
36359;SDS011;22388;52.432;20.662;2023-04-08T02:08:08;19.55;;;13.63;;
36359;SDS011;22388;52.432;20.662;2023-04-08T02:10:34;20.55;;;13.57;;
36359;SDS011;22388;52.432;20.662;2023-04-08T02:13:00;19.25;;;13.48;;
36359;SDS011;22388;52.432;20.662;2023-04-08T02:15:26;19.55;;;13.30;;
36359;SDS011;22388;52.432;20.662;2023-04-08T02:17:54;19.98;;;13.85;;
36359;SDS011;22388;52.432;20.662;2023-04-08T02:20:22;19.23;;;13.98;;
36359;SDS011;22388;52.432;20.662;2023-04-08T02:25:29;18.48;;;14.15;;
36359;SDS011;22388;52.432;20.662;2023-04-08T02:27:55;21.60;;;13.98;;
36359;SDS011;22388;52.432;20.662;2023-04-08T02:30:21;19.92;;;13.48;;
36359;SDS011;22388;52.432;20.662;2023-04-08T02:32:48;18.38;;;11.77;;
36359;SDS011;22388;52.432;20.662;2023-04-08T02:35:15;18.58;;;13.43;;
36359;SDS011;22388;52.432;20.662;2023-04-08T02:37:41;17.75;;;12.68;;
36359;SDS011;22388;52.432;20.662;2023-04-08T02:40:21;18.70;;;13.93;;
36359;SDS011;22388;52.432;20.662;2023-04-08T02:42:47;21.73;;;14.68;;
36359;SDS011;22388;52.432;20.662;2023-04-08T02:45:12;16.92;;;12.60;;
36359;SDS011;22388;52.432;20.662;2023-04-08T02:47:38;18.20;;;12.57;;
36359;SDS011;22388;52.432;20.662;2023-04-08T02:50:03;20.65;;;14.00;;
36359;SDS011;22388;52.432;20.662;2023-04-08T02:52:30;18.88;;;13.70;;
36359;SDS011;22388;52.432;20.662;2023-04-08T02:54:55;20.90;;;13.55;;
36359;SDS011;22388;52.432;20.662;2023-04-08T02:57:21;20.15;;;13.20;;
36359;SDS011;22388;52.432;20.662;2023-04-08T02:59:46;19.63;;;13.25;;
36359;SDS011;22388;52.432;20.662;2023-04-08T03:02:12;19.45;;;13.77;;
36359;SDS011;22388;52.432;20.662;2023-04-08T03:04:37;19.20;;;13.57;;
36359;SDS011;22388;52.432;20.662;2023-04-08T03:07:03;17.83;;;12.70;;
36359;SDS011;22388;52.432;20.662;2023-04-08T03:09:28;17.90;;;13.13;;
36359;SDS011;22388;52.432;20.662;2023-04-08T03:11:54;19.95;;;13.27;;
36359;SDS011;22388;52.432;20.662;2023-04-08T03:14:20;18.15;;;12.02;;
36359;SDS011;22388;52.432;20.662;2023-04-08T03:16:46;18.80;;;12.73;;
36359;SDS011;22388;52.432;20.662;2023-04-08T03:19:12;20.70;;;13.65;;
36359;SDS011;22388;52.432;20.662;2023-04-08T03:21:37;19.52;;;12.52;;
36359;SDS011;22388;52.432;20.662;2023-04-08T03:24:03;19.73;;;13.25;;
36359;SDS011;22388;52.432;20.662;2023-04-08T03:26:29;22.05;;;13.68;;
36359;SDS011;22388;52.432;20.662;2023-04-08T03:28:54;23.40;;;14.50;;
36359;SDS011;22388;52.432;20.662;2023-04-08T03:31:20;21.45;;;13.77;;
36359;SDS011;22388;52.432;20.662;2023-04-08T03:33:45;19.40;;;12.82;;
36359;SDS011;22388;52.432;20.662;2023-04-08T03:36:11;21.23;;;13.57;;
36359;SDS011;22388;52.432;20.662;2023-04-08T03:38:37;18.73;;;12.55;;
36359;SDS011;22388;52.432;20.662;2023-04-08T03:41:02;20.02;;;11.70;;
36359;SDS011;22388;52.432;20.662;2023-04-08T03:43:28;17.27;;;11.45;;
36359;SDS011;22388;52.432;20.662;2023-04-08T03:45:54;18.42;;;12.07;;
36359;SDS011;22388;52.432;20.662;2023-04-08T03:48:20;18.08;;;12.25;;
36359;SDS011;22388;52.432;20.662;2023-04-08T03:50:45;18.98;;;12.23;;
36359;SDS011;22388;52.432;20.662;2023-04-08T03:53:11;17.80;;;12.30;;
36359;SDS011;22388;52.432;20.662;2023-04-08T03:55:37;17.38;;;12.00;;
36359;SDS011;22388;52.432;20.662;2023-04-08T03:58:03;17.85;;;11.98;;
36359;SDS011;22388;52.432;20.662;2023-04-08T04:00:29;17.65;;;12.20;;
36359;SDS011;22388;52.432;20.662;2023-04-08T04:02:55;17.83;;;11.55;;
36359;SDS011;22388;52.432;20.662;2023-04-08T04:05:20;17.13;;;10.73;;
36359;SDS011;22388;52.432;20.662;2023-04-08T04:07:46;17.63;;;11.35;;
36359;SDS011;22388;52.432;20.662;2023-04-08T04:10:11;16.88;;;10.68;;
36359;SDS011;22388;52.432;20.662;2023-04-08T04:12:37;16.15;;;11.45;;
36359;SDS011;22388;52.432;20.662;2023-04-08T04:15:03;17.52;;;10.90;;
36359;SDS011;22388;52.432;20.662;2023-04-08T04:17:29;16.13;;;11.00;;
36359;SDS011;22388;52.432;20.662;2023-04-08T04:19:55;18.00;;;11.40;;
36359;SDS011;22388;52.432;20.662;2023-04-08T04:22:20;19.50;;;12.57;;
36359;SDS011;22388;52.432;20.662;2023-04-08T04:24:49;20.08;;;11.98;;
36359;SDS011;22388;52.432;20.662;2023-04-08T04:27:15;18.65;;;12.13;;
36359;SDS011;22388;52.432;20.662;2023-04-08T04:29:41;18.60;;;12.38;;
36359;SDS011;22388;52.432;20.662;2023-04-08T04:32:08;21.23;;;13.57;;
36359;SDS011;22388;52.432;20.662;2023-04-08T04:34:34;18.60;;;12.95;;
36359;SDS011;22388;52.432;20.662;2023-04-08T04:36:59;17.73;;;12.02;;
36359;SDS011;22388;52.432;20.662;2023-04-08T04:39:25;16.48;;;11.30;;
36359;SDS011;22388;52.432;20.662;2023-04-08T04:41:51;18.08;;;11.18;;
36359;SDS011;22388;52.432;20.662;2023-04-08T04:44:16;16.63;;;12.07;;
36359;SDS011;22388;52.432;20.662;2023-04-08T04:46:42;19.27;;;12.98;;
36359;SDS011;22388;52.432;20.662;2023-04-08T04:49:08;23.75;;;14.45;;
36359;SDS011;22388;52.432;20.662;2023-04-08T04:51:33;19.85;;;13.88;;
36359;SDS011;22388;52.432;20.662;2023-04-08T04:53:59;20.42;;;13.40;;
36359;SDS011;22388;52.432;20.662;2023-04-08T04:56:24;23.00;;;15.45;;
36359;SDS011;22388;52.432;20.662;2023-04-08T04:58:51;21.13;;;14.35;;
36359;SDS011;22388;52.432;20.662;2023-04-08T05:01:17;22.20;;;15.07;;
36359;SDS011;22388;52.432;20.662;2023-04-08T05:03:43;21.92;;;14.85;;
36359;SDS011;22388;52.432;20.662;2023-04-08T05:06:09;23.40;;;14.88;;
36359;SDS011;22388;52.432;20.662;2023-04-08T05:08:35;26.05;;;16.17;;
36359;SDS011;22388;52.432;20.662;2023-04-08T05:11:01;26.23;;;15.45;;
36359;SDS011;22388;52.432;20.662;2023-04-08T05:13:27;22.63;;;15.23;;
36359;SDS011;22388;52.432;20.662;2023-04-08T05:15:53;22.77;;;14.65;;
36359;SDS011;22388;52.432;20.662;2023-04-08T05:18:18;17.60;;;12.02;;
36359;SDS011;22388;52.432;20.662;2023-04-08T05:20:44;18.98;;;12.25;;
36359;SDS011;22388;52.432;20.662;2023-04-08T05:23:10;19.40;;;12.98;;
36359;SDS011;22388;52.432;20.662;2023-04-08T05:25:36;19.30;;;12.00;;
36359;SDS011;22388;52.432;20.662;2023-04-08T05:28:02;19.85;;;12.70;;
36359;SDS011;22388;52.432;20.662;2023-04-08T05:30:28;19.75;;;12.52;;
36359;SDS011;22388;52.432;20.662;2023-04-08T05:32:54;18.73;;;12.00;;
36359;SDS011;22388;52.432;20.662;2023-04-08T05:35:20;18.63;;;12.15;;
36359;SDS011;22388;52.432;20.662;2023-04-08T05:37:45;20.13;;;12.93;;
36359;SDS011;22388;52.432;20.662;2023-04-08T05:40:11;17.92;;;12.40;;
36359;SDS011;22388;52.432;20.662;2023-04-08T05:42:36;18.27;;;12.23;;
36359;SDS011;22388;52.432;20.662;2023-04-08T05:45:02;19.45;;;12.55;;
36359;SDS011;22388;52.432;20.662;2023-04-08T05:47:28;19.15;;;11.82;;
36359;SDS011;22388;52.432;20.662;2023-04-08T05:49:53;18.17;;;11.77;;
36359;SDS011;22388;52.432;20.662;2023-04-08T05:52:19;20.83;;;14.73;;
36359;SDS011;22388;52.432;20.662;2023-04-08T05:54:45;19.17;;;12.90;;
36359;SDS011;22388;52.432;20.662;2023-04-08T05:57:12;21.63;;;12.40;;
36359;SDS011;22388;52.432;20.662;2023-04-08T05:59:38;18.60;;;12.50;;
36359;SDS011;22388;52.432;20.662;2023-04-08T06:05:01;19.98;;;13.10;;
36359;SDS011;22388;52.432;20.662;2023-04-08T06:07:28;21.40;;;12.95;;
36359;SDS011;22388;52.432;20.662;2023-04-08T06:09:53;21.17;;;13.15;;
36359;SDS011;22388;52.432;20.662;2023-04-08T06:12:19;21.75;;;13.05;;
36359;SDS011;22388;52.432;20.662;2023-04-08T06:14:45;21.65;;;13.35;;
36359;SDS011;22388;52.432;20.662;2023-04-08T06:17:11;19.73;;;12.88;;
36359;SDS011;22388;52.432;20.662;2023-04-08T06:19:37;21.52;;;13.80;;
36359;SDS011;22388;52.432;20.662;2023-04-08T06:22:02;19.33;;;13.07;;
36359;SDS011;22388;52.432;20.662;2023-04-08T06:24:28;20.52;;;12.82;;
36359;SDS011;22388;52.432;20.662;2023-04-08T06:26:54;18.52;;;12.45;;
36359;SDS011;22388;52.432;20.662;2023-04-08T06:29:20;19.38;;;12.82;;
36359;SDS011;22388;52.432;20.662;2023-04-08T06:31:47;17.58;;;12.07;;
36359;SDS011;22388;52.432;20.662;2023-04-08T06:34:13;19.83;;;12.43;;
36359;SDS011;22388;52.432;20.662;2023-04-08T06:36:38;18.95;;;12.60;;
36359;SDS011;22388;52.432;20.662;2023-04-08T06:39:04;18.83;;;12.15;;
36359;SDS011;22388;52.432;20.662;2023-04-08T06:41:30;18.85;;;12.27;;
36359;SDS011;22388;52.432;20.662;2023-04-08T06:43:56;18.70;;;12.23;;
36359;SDS011;22388;52.432;20.662;2023-04-08T06:46:22;20.42;;;11.38;;
36359;SDS011;22388;52.432;20.662;2023-04-08T06:48:47;18.65;;;12.57;;
36359;SDS011;22388;52.432;20.662;2023-04-08T06:51:13;16.88;;;11.55;;
36359;SDS011;22388;52.432;20.662;2023-04-08T06:53:38;17.60;;;11.60;;
36359;SDS011;22388;52.432;20.662;2023-04-08T06:56:04;16.75;;;11.20;;
36359;SDS011;22388;52.432;20.662;2023-04-08T06:58:30;19.33;;;11.50;;
36359;SDS011;22388;52.432;20.662;2023-04-08T07:00:56;16.45;;;11.23;;
36359;SDS011;22388;52.432;20.662;2023-04-08T07:03:23;17.50;;;11.73;;
36359;SDS011;22388;52.432;20.662;2023-04-08T07:05:49;16.48;;;10.80;;
36359;SDS011;22388;52.432;20.662;2023-04-08T07:08:15;15.88;;;10.95;;
36359;SDS011;22388;52.432;20.662;2023-04-08T07:10:40;16.58;;;11.10;;
36359;SDS011;22388;52.432;20.662;2023-04-08T07:13:06;16.05;;;11.35;;
36359;SDS011;22388;52.432;20.662;2023-04-08T07:15:32;16.42;;;9.95;;
36359;SDS011;22388;52.432;20.662;2023-04-08T07:17:57;18.05;;;10.73;;
36359;SDS011;22388;52.432;20.662;2023-04-08T07:20:23;17.45;;;11.27;;
36359;SDS011;22388;52.432;20.662;2023-04-08T07:22:50;17.40;;;10.65;;
36359;SDS011;22388;52.432;20.662;2023-04-08T07:25:16;16.77;;;10.93;;
36359;SDS011;22388;52.432;20.662;2023-04-08T07:27:42;14.88;;;10.18;;
36359;SDS011;22388;52.432;20.662;2023-04-08T07:30:07;15.00;;;9.60;;
36359;SDS011;22388;52.432;20.662;2023-04-08T07:32:33;17.75;;;10.02;;
36359;SDS011;22388;52.432;20.662;2023-04-08T07:34:59;14.57;;;9.73;;
36359;SDS011;22388;52.432;20.662;2023-04-08T07:37:25;14.48;;;10.30;;
36359;SDS011;22388;52.432;20.662;2023-04-08T07:39:51;14.38;;;9.90;;
36359;SDS011;22388;52.432;20.662;2023-04-08T07:42:17;15.10;;;10.45;;
36359;SDS011;22388;52.432;20.662;2023-04-08T07:44:43;14.70;;;10.23;;
36359;SDS011;22388;52.432;20.662;2023-04-08T07:47:10;16.17;;;10.52;;
36359;SDS011;22388;52.432;20.662;2023-04-08T07:49:36;16.67;;;10.27;;
36359;SDS011;22388;52.432;20.662;2023-04-08T07:52:02;15.55;;;10.95;;
36359;SDS011;22388;52.432;20.662;2023-04-08T07:54:31;17.50;;;11.02;;
36359;SDS011;22388;52.432;20.662;2023-04-08T07:57:00;14.05;;;10.32;;
36359;SDS011;22388;52.432;20.662;2023-04-08T07:59:27;13.70;;;9.48;;
36359;SDS011;22388;52.432;20.662;2023-04-08T08:01:53;13.05;;;8.95;;
36359;SDS011;22388;52.432;20.662;2023-04-08T08:04:18;13.30;;;8.68;;
36359;SDS011;22388;52.432;20.662;2023-04-08T08:06:45;14.23;;;9.68;;
36359;SDS011;22388;52.432;20.662;2023-04-08T08:09:11;13.75;;;9.30;;
36359;SDS011;22388;52.432;20.662;2023-04-08T08:11:37;15.05;;;10.05;;
36359;SDS011;22388;52.432;20.662;2023-04-08T08:14:03;13.48;;;9.18;;
36359;SDS011;22388;52.432;20.662;2023-04-08T08:16:29;13.60;;;9.55;;
36359;SDS011;22388;52.432;20.662;2023-04-08T08:18:56;13.20;;;9.38;;
36359;SDS011;22388;52.432;20.662;2023-04-08T08:21:22;14.20;;;10.60;;
36359;SDS011;22388;52.432;20.662;2023-04-08T08:23:48;12.85;;;9.23;;
36359;SDS011;22388;52.432;20.662;2023-04-08T08:26:13;14.40;;;9.52;;
36359;SDS011;22388;52.432;20.662;2023-04-08T08:28:39;14.32;;;9.13;;
36359;SDS011;22388;52.432;20.662;2023-04-08T08:31:04;13.88;;;9.25;;
36359;SDS011;22388;52.432;20.662;2023-04-08T08:33:30;13.05;;;8.45;;
36359;SDS011;22388;52.432;20.662;2023-04-08T08:35:57;14.82;;;9.23;;
36359;SDS011;22388;52.432;20.662;2023-04-08T08:38:23;14.50;;;9.25;;
36359;SDS011;22388;52.432;20.662;2023-04-08T08:40:53;12.95;;;8.27;;
36359;SDS011;22388;52.432;20.662;2023-04-08T08:43:20;12.13;;;8.48;;
36359;SDS011;22388;52.432;20.662;2023-04-08T08:45:46;13.32;;;8.68;;
36359;SDS011;22388;52.432;20.662;2023-04-08T08:48:12;13.13;;;8.85;;
36359;SDS011;22388;52.432;20.662;2023-04-08T08:50:38;12.82;;;7.97;;
36359;SDS011;22388;52.432;20.662;2023-04-08T08:53:04;13.85;;;9.00;;
36359;SDS011;22388;52.432;20.662;2023-04-08T08:55:30;13.10;;;8.65;;
36359;SDS011;22388;52.432;20.662;2023-04-08T08:57:58;14.23;;;8.95;;
36359;SDS011;22388;52.432;20.662;2023-04-08T09:00:30;13.55;;;9.10;;
36359;SDS011;22388;52.432;20.662;2023-04-08T09:03:21;11.15;;;8.20;;
36359;SDS011;22388;52.432;20.662;2023-04-08T09:05:49;18.95;;;8.68;;
36359;SDS011;22388;52.432;20.662;2023-04-08T09:10:55;14.50;;;8.38;;
36359;SDS011;22388;52.432;20.662;2023-04-08T09:13:21;16.05;;;8.57;;
36359;SDS011;22388;52.432;20.662;2023-04-08T09:15:59;12.18;;;8.95;;
36359;SDS011;22388;52.432;20.662;2023-04-08T09:18:27;14.15;;;8.40;;
36359;SDS011;22388;52.432;20.662;2023-04-08T09:20:53;15.48;;;8.90;;
36359;SDS011;22388;52.432;20.662;2023-04-08T09:23:18;12.82;;;8.20;;
36359;SDS011;22388;52.432;20.662;2023-04-08T09:25:44;12.68;;;8.32;;
36359;SDS011;22388;52.432;20.662;2023-04-08T09:28:19;14.45;;;9.20;;
36359;SDS011;22388;52.432;20.662;2023-04-08T09:30:45;13.43;;;8.75;;
36359;SDS011;22388;52.432;20.662;2023-04-08T09:33:12;14.25;;;9.20;;
36359;SDS011;22388;52.432;20.662;2023-04-08T09:35:38;12.77;;;8.55;;
36359;SDS011;22388;52.432;20.662;2023-04-08T09:38:03;17.52;;;9.18;;
36359;SDS011;22388;52.432;20.662;2023-04-08T09:40:31;15.73;;;9.07;;
36359;SDS011;22388;52.432;20.662;2023-04-08T09:42:59;11.93;;;8.40;;
36359;SDS011;22388;52.432;20.662;2023-04-08T09:45:30;14.67;;;8.93;;
36359;SDS011;22388;52.432;20.662;2023-04-08T09:50:42;12.27;;;8.85;;
36359;SDS011;22388;52.432;20.662;2023-04-08T09:53:18;12.75;;;9.15;;
36359;SDS011;22388;52.432;20.662;2023-04-08T09:55:48;11.40;;;7.90;;
36359;SDS011;22388;52.432;20.662;2023-04-08T09:58:18;13.30;;;8.13;;
36359;SDS011;22388;52.432;20.662;2023-04-08T10:00:49;11.80;;;8.38;;
36359;SDS011;22388;52.432;20.662;2023-04-08T10:03:29;19.80;;;9.25;;
36359;SDS011;22388;52.432;20.662;2023-04-08T10:06:00;12.32;;;7.80;;
36359;SDS011;22388;52.432;20.662;2023-04-08T10:08:27;12.15;;;8.70;;
36359;SDS011;22388;52.432;20.662;2023-04-08T10:10:53;11.55;;;8.75;;
36359;SDS011;22388;52.432;20.662;2023-04-08T10:13:20;12.98;;;8.40;;
36359;SDS011;22388;52.432;20.662;2023-04-08T10:15:46;11.25;;;8.02;;
36359;SDS011;22388;52.432;20.662;2023-04-08T10:23:07;14.57;;;8.65;;
36359;SDS011;22388;52.432;20.662;2023-04-08T10:25:43;11.77;;;7.85;;
36359;SDS011;22388;52.432;20.662;2023-04-08T10:30:48;10.15;;;7.75;;
36359;SDS011;22388;52.432;20.662;2023-04-08T10:33:21;13.05;;;8.35;;
36359;SDS011;22388;52.432;20.662;2023-04-08T10:35:53;11.40;;;8.38;;
36359;SDS011;22388;52.432;20.662;2023-04-08T10:38:19;12.23;;;8.25;;
36359;SDS011;22388;52.432;20.662;2023-04-08T10:40:46;11.25;;;7.97;;
36359;SDS011;22388;52.432;20.662;2023-04-08T10:43:13;10.15;;;8.05;;
36359;SDS011;22388;52.432;20.662;2023-04-08T10:45:40;12.55;;;8.15;;
36359;SDS011;22388;52.432;20.662;2023-04-08T10:48:18;11.48;;;7.70;;
36359;SDS011;22388;52.432;20.662;2023-04-08T10:53:32;10.35;;;7.72;;
36359;SDS011;22388;52.432;20.662;2023-04-08T10:56:02;10.45;;;7.55;;
36359;SDS011;22388;52.432;20.662;2023-04-08T10:58:46;11.90;;;8.07;;
36359;SDS011;22388;52.432;20.662;2023-04-08T11:01:15;11.30;;;7.80;;
36359;SDS011;22388;52.432;20.662;2023-04-08T11:03:41;11.43;;;7.80;;
36359;SDS011;22388;52.432;20.662;2023-04-08T11:06:07;12.38;;;8.63;;
36359;SDS011;22388;52.432;20.662;2023-04-08T11:08:34;10.55;;;7.90;;
36359;SDS011;22388;52.432;20.662;2023-04-08T11:11:01;11.07;;;7.97;;
36359;SDS011;22388;52.432;20.662;2023-04-08T11:13:28;11.00;;;7.47;;
36359;SDS011;22388;52.432;20.662;2023-04-08T11:15:55;9.52;;;6.90;;
36359;SDS011;22388;52.432;20.662;2023-04-08T11:18:22;9.55;;;6.70;;
36359;SDS011;22388;52.432;20.662;2023-04-08T11:20:51;11.18;;;7.43;;
36359;SDS011;22388;52.432;20.662;2023-04-08T11:23:17;11.93;;;7.13;;
36359;SDS011;22388;52.432;20.662;2023-04-08T11:25:44;10.50;;;7.60;;
36359;SDS011;22388;52.432;20.662;2023-04-08T11:28:11;9.93;;;7.07;;
36359;SDS011;22388;52.432;20.662;2023-04-08T11:30:38;11.38;;;7.45;;
36359;SDS011;22388;52.432;20.662;2023-04-08T11:33:04;11.85;;;8.10;;
36359;SDS011;22388;52.432;20.662;2023-04-08T11:35:31;11.45;;;8.48;;
36359;SDS011;22388;52.432;20.662;2023-04-08T11:37:56;10.48;;;7.68;;
36359;SDS011;22388;52.432;20.662;2023-04-08T11:40:22;10.52;;;7.35;;
36359;SDS011;22388;52.432;20.662;2023-04-08T11:42:49;11.30;;;8.10;;
36359;SDS011;22388;52.432;20.662;2023-04-08T11:45:16;10.88;;;7.30;;
36359;SDS011;22388;52.432;20.662;2023-04-08T11:47:43;10.10;;;7.30;;
36359;SDS011;22388;52.432;20.662;2023-04-08T11:50:10;10.32;;;7.65;;
36359;SDS011;22388;52.432;20.662;2023-04-08T11:55:08;12.57;;;8.15;;
36359;SDS011;22388;52.432;20.662;2023-04-08T11:57:35;11.35;;;7.40;;
36359;SDS011;22388;52.432;20.662;2023-04-08T12:00:02;12.10;;;8.00;;
36359;SDS011;22388;52.432;20.662;2023-04-08T12:02:30;13.45;;;9.25;;
36359;SDS011;22388;52.432;20.662;2023-04-08T12:04:55;14.18;;;8.93;;
36359;SDS011;22388;52.432;20.662;2023-04-08T12:07:21;11.93;;;8.02;;
36359;SDS011;22388;52.432;20.662;2023-04-08T12:09:46;12.80;;;8.77;;
36359;SDS011;22388;52.432;20.662;2023-04-08T12:12:12;11.52;;;8.57;;
36359;SDS011;22388;52.432;20.662;2023-04-08T12:14:38;9.60;;;7.05;;
36359;SDS011;22388;52.432;20.662;2023-04-08T12:17:03;9.82;;;7.50;;
36359;SDS011;22388;52.432;20.662;2023-04-08T12:19:29;11.23;;;7.82;;
36359;SDS011;22388;52.432;20.662;2023-04-08T12:21:54;9.52;;;6.97;;
36359;SDS011;22388;52.432;20.662;2023-04-08T12:24:20;10.25;;;7.47;;
36359;SDS011;22388;52.432;20.662;2023-04-08T12:26:46;9.48;;;6.90;;
36359;SDS011;22388;52.432;20.662;2023-04-08T12:29:11;9.50;;;6.97;;
36359;SDS011;22388;52.432;20.662;2023-04-08T12:31:37;9.77;;;7.30;;
36359;SDS011;22388;52.432;20.662;2023-04-08T12:34:03;10.68;;;7.40;;
36359;SDS011;22388;52.432;20.662;2023-04-08T12:36:28;9.93;;;7.22;;
36359;SDS011;22388;52.432;20.662;2023-04-08T12:38:55;11.57;;;7.43;;
36359;SDS011;22388;52.432;20.662;2023-04-08T12:41:21;11.00;;;7.15;;
36359;SDS011;22388;52.432;20.662;2023-04-08T12:43:47;9.68;;;6.85;;
36359;SDS011;22388;52.432;20.662;2023-04-08T12:46:12;10.52;;;7.72;;
36359;SDS011;22388;52.432;20.662;2023-04-08T12:48:38;11.93;;;8.15;;
36359;SDS011;22388;52.432;20.662;2023-04-08T12:51:04;10.43;;;7.63;;
36359;SDS011;22388;52.432;20.662;2023-04-08T12:53:30;9.85;;;7.30;;
36359;SDS011;22388;52.432;20.662;2023-04-08T12:55:56;9.60;;;6.97;;
36359;SDS011;22388;52.432;20.662;2023-04-08T12:58:22;8.93;;;6.47;;
36359;SDS011;22388;52.432;20.662;2023-04-08T13:00:49;9.38;;;6.32;;
36359;SDS011;22388;52.432;20.662;2023-04-08T13:03:15;7.95;;;5.68;;
36359;SDS011;22388;52.432;20.662;2023-04-08T13:05:42;12.50;;;6.28;;
36359;SDS011;22388;52.432;20.662;2023-04-08T13:08:08;9.52;;;6.10;;
36359;SDS011;22388;52.432;20.662;2023-04-08T13:10:35;7.25;;;5.50;;
36359;SDS011;22388;52.432;20.662;2023-04-08T13:13:01;9.00;;;6.10;;
36359;SDS011;22388;52.432;20.662;2023-04-08T13:15:27;8.88;;;5.68;;
36359;SDS011;22388;52.432;20.662;2023-04-08T13:17:53;11.65;;;6.38;;
36359;SDS011;22388;52.432;20.662;2023-04-08T13:20:18;9.65;;;5.95;;
36359;SDS011;22388;52.432;20.662;2023-04-08T13:22:44;11.00;;;7.10;;
36359;SDS011;22388;52.432;20.662;2023-04-08T13:25:09;9.90;;;6.35;;
36359;SDS011;22388;52.432;20.662;2023-04-08T13:27:35;9.18;;;6.25;;
36359;SDS011;22388;52.432;20.662;2023-04-08T13:30:00;9.43;;;6.88;;
36359;SDS011;22388;52.432;20.662;2023-04-08T13:32:26;9.07;;;6.38;;
36359;SDS011;22388;52.432;20.662;2023-04-08T13:34:51;9.38;;;6.43;;
36359;SDS011;22388;52.432;20.662;2023-04-08T13:37:17;9.20;;;6.45;;
36359;SDS011;22388;52.432;20.662;2023-04-08T13:39:43;9.48;;;5.93;;
36359;SDS011;22388;52.432;20.662;2023-04-08T13:42:08;8.13;;;5.63;;
36359;SDS011;22388;52.432;20.662;2023-04-08T13:44:34;8.07;;;5.90;;
36359;SDS011;22388;52.432;20.662;2023-04-08T13:47:00;9.75;;;5.97;;
36359;SDS011;22388;52.432;20.662;2023-04-08T13:49:26;8.90;;;6.85;;
36359;SDS011;22388;52.432;20.662;2023-04-08T13:51:51;10.73;;;7.43;;
36359;SDS011;22388;52.432;20.662;2023-04-08T13:54:17;9.68;;;6.68;;
36359;SDS011;22388;52.432;20.662;2023-04-08T13:56:43;9.68;;;7.00;;
36359;SDS011;22388;52.432;20.662;2023-04-08T13:59:08;9.55;;;6.45;;
36359;SDS011;22388;52.432;20.662;2023-04-08T14:01:34;10.00;;;7.10;;
36359;SDS011;22388;52.432;20.662;2023-04-08T14:04:00;10.43;;;7.90;;
36359;SDS011;22388;52.432;20.662;2023-04-08T14:06:26;10.73;;;7.93;;
36359;SDS011;22388;52.432;20.662;2023-04-08T14:08:51;11.15;;;7.90;;
36359;SDS011;22388;52.432;20.662;2023-04-08T14:11:17;11.02;;;8.38;;
36359;SDS011;22388;52.432;20.662;2023-04-08T14:13:43;10.77;;;7.88;;
36359;SDS011;22388;52.432;20.662;2023-04-08T14:16:08;12.25;;;8.02;;
36359;SDS011;22388;52.432;20.662;2023-04-08T14:18:34;11.18;;;7.63;;
36359;SDS011;22388;52.432;20.662;2023-04-08T14:21:00;10.27;;;7.00;;
36359;SDS011;22388;52.432;20.662;2023-04-08T14:23:26;11.63;;;7.82;;
36359;SDS011;22388;52.432;20.662;2023-04-08T14:25:52;11.77;;;7.78;;
36359;SDS011;22388;52.432;20.662;2023-04-08T14:28:17;11.65;;;7.90;;
36359;SDS011;22388;52.432;20.662;2023-04-08T14:30:43;8.73;;;6.88;;
36359;SDS011;22388;52.432;20.662;2023-04-08T14:33:08;10.95;;;6.97;;
36359;SDS011;22388;52.432;20.662;2023-04-08T14:35:34;9.18;;;6.18;;
36359;SDS011;22388;52.432;20.662;2023-04-08T14:38:00;7.97;;;5.20;;
36359;SDS011;22388;52.432;20.662;2023-04-08T14:40:26;7.03;;;5.45;;
36359;SDS011;22388;52.432;20.662;2023-04-08T14:42:51;8.02;;;5.47;;